createdAt,value
2018-04-25T00:01:56.051Z,14.03
2018-04-25T00:04:23.652Z,14.50
2018-04-25T00:06:50.631Z,15.33
2018-04-25T00:09:18.351Z,13.27
2018-04-25T00:11:45.491Z,18.37
2018-04-25T00:14:12.553Z,15.53
2018-04-25T00:16:39.632Z,15.53
2018-04-25T00:19:06.792Z,14.93
2018-04-25T00:21:33.852Z,19.13
2018-04-25T00:24:00.932Z,18.60
2018-04-25T00:26:27.972Z,15.70
2018-04-25T00:28:55.832Z,17.07
2018-04-25T00:31:22.795Z,17.20
2018-04-25T00:33:49.832Z,15.30
2018-04-25T00:36:18.174Z,20.70
2018-04-25T00:38:45.332Z,18.13
2018-04-25T00:41:12.391Z,15.80
2018-04-25T00:43:39.492Z,15.57
2018-04-25T00:46:06.691Z,15.50
2018-04-25T00:48:34.492Z,17.23
2018-04-25T00:51:01.713Z,16.13
2018-04-25T00:53:29.271Z,17.17
2018-04-25T00:55:56.412Z,20.73
2018-04-25T00:58:23.592Z,18.57
2018-04-25T01:00:50.691Z,20.97
2018-04-25T01:03:17.792Z,24.17
2018-04-25T01:05:45.452Z,17.20
2018-04-25T01:08:12.591Z,20.37
2018-04-25T01:10:39.751Z,22.07
2018-04-25T01:13:07.411Z,16.27
2018-04-25T01:15:34.516Z,16.23
2018-04-25T01:18:01.578Z,19.63
2018-04-25T01:20:28.750Z,17.37
2018-04-25T01:22:55.972Z,19.17
2018-04-25T01:25:31.891Z,16.40
2018-04-25T01:28:18.587Z,14.57
2018-04-25T01:30:55.717Z,17.37
2018-04-25T01:33:22.914Z,14.93
2018-04-25T01:35:56.054Z,16.63
2018-04-25T01:38:23.147Z,13.77
2018-04-25T01:40:50.251Z,15.30
2018-04-25T01:43:19.570Z,13.43
2018-04-25T01:52:46.231Z,16.87
2018-04-25T01:55:31.430Z,16.87
2018-04-25T01:58:17.251Z,24.53
2018-04-25T02:01:02.311Z,16.97
2018-04-25T02:03:57.731Z,18.17
2018-04-25T02:06:24.752Z,15.23
2018-04-25T02:08:51.850Z,16.70
2018-04-25T02:11:19.390Z,14.77
2018-04-25T02:13:46.490Z,16.63
2018-04-25T02:16:13.551Z,15.93
2018-04-25T02:18:40.550Z,18.13
2018-04-25T02:21:07.592Z,19.00
2018-04-25T02:23:34.711Z,20.23
2018-04-25T02:26:01.771Z,17.47
2018-04-25T02:28:28.752Z,17.30
2018-04-25T02:30:56.174Z,21.40
2018-04-25T02:33:23.050Z,18.80
2018-04-25T02:35:50.011Z,15.87
2018-04-25T02:38:17.830Z,16.40
2018-04-25T02:40:44.790Z,17.97
2018-04-25T02:43:11.870Z,16.03
2018-04-25T02:45:38.971Z,18.40
2018-04-25T02:48:05.910Z,16.63
2018-04-25T02:50:32.935Z,16.20
2018-04-25T02:52:59.891Z,19.47
2018-04-25T02:55:27.011Z,17.70
2018-04-25T02:57:54.331Z,17.23
2018-04-25T03:00:21.372Z,16.97
2018-04-25T03:02:48.435Z,15.87
2018-04-25T03:05:15.774Z,21.20
2018-04-25T03:07:42.791Z,19.10
2018-04-25T03:10:09.891Z,16.80
2018-04-25T03:12:36.971Z,17.70
2018-04-25T03:15:03.891Z,20.67
2018-04-25T03:17:31.291Z,18.33
2018-04-25T03:19:58.332Z,17.27
2018-04-25T03:22:25.371Z,16.17
2018-04-25T03:24:52.651Z,18.50
2018-04-25T03:27:19.698Z,16.53
2018-04-25T03:29:47.554Z,19.87
2018-04-25T03:32:14.551Z,20.97
2018-04-25T03:34:41.652Z,22.50
2018-04-25T03:37:08.651Z,26.93
2018-04-25T03:39:35.691Z,22.37
2018-04-25T03:42:02.638Z,15.77
2018-04-25T03:44:29.713Z,16.83
2018-04-25T03:46:56.672Z,16.33
2018-04-25T03:49:23.651Z,18.33
2018-04-25T03:51:51.009Z,19.13
2018-04-25T03:54:18.072Z,17.20
2018-04-25T03:56:45.071Z,17.17
2018-04-25T03:59:12.277Z,18.27
2018-04-25T04:01:40.033Z,18.70
2018-04-25T04:04:07.071Z,24.43
2018-04-25T04:06:34.152Z,23.03
2018-04-25T04:09:01.212Z,21.13
2018-04-25T04:11:28.492Z,19.47
2018-04-25T04:13:55.611Z,19.10
2018-04-25T04:16:22.951Z,22.70
2018-04-25T04:18:49.991Z,20.10
2018-04-25T04:21:17.720Z,17.03
2018-04-25T04:23:44.813Z,15.87
2018-04-25T04:26:11.847Z,17.77
2018-04-25T04:28:39.892Z,17.17
2018-04-25T04:31:06.873Z,15.03
2018-04-25T04:33:33.872Z,14.83
2018-04-25T04:36:01.171Z,13.70
2018-04-25T04:38:28.351Z,16.67
2018-04-25T04:40:55.311Z,17.20
2018-04-25T04:43:22.391Z,17.10
2018-04-25T04:45:49.471Z,14.67
2018-04-25T04:48:16.892Z,12.30
2018-04-25T04:50:43.951Z,13.27
2018-04-25T04:53:10.933Z,10.30
2018-04-25T04:55:37.884Z,11.57
2018-04-25T04:58:04.992Z,14.13
2018-04-25T05:00:32.752Z,11.20
2018-04-25T05:03:00.631Z,9.60
2018-04-25T05:05:28.411Z,12.23
2018-04-25T05:07:55.813Z,8.83
2018-04-25T05:10:22.931Z,9.33
2018-04-25T05:12:50.172Z,10.60
2018-04-25T05:15:17.233Z,9.70
2018-04-25T05:17:44.933Z,8.40
2018-04-25T05:20:12.133Z,9.10
2018-04-25T05:22:39.153Z,10.80
2018-04-25T05:25:06.151Z,11.73
2018-04-25T05:27:33.212Z,12.13
2018-04-25T05:30:00.320Z,8.57
2018-04-25T05:32:27.312Z,8.17
2018-04-25T05:34:54.335Z,10.33
2018-04-25T05:37:21.338Z,10.27
2018-04-25T05:39:48.411Z,10.10
2018-04-25T05:42:15.453Z,10.23
2018-04-25T05:44:42.504Z,10.40
2018-04-25T05:47:09.698Z,9.77
2018-04-25T05:49:36.712Z,10.67
2018-04-25T05:52:03.751Z,9.83
2018-04-25T05:54:30.831Z,10.37
2018-04-25T05:56:58.611Z,11.50
2018-04-25T05:59:25.650Z,10.07
2018-04-25T06:01:52.732Z,13.33
2018-04-25T06:04:19.773Z,10.57
2018-04-25T06:06:47.252Z,13.53
2018-04-25T06:09:14.375Z,12.53
2018-04-25T06:11:41.513Z,11.97
2018-04-25T06:14:08.551Z,12.07
2018-04-25T06:16:35.553Z,13.63
2018-04-25T06:19:02.611Z,13.53
2018-04-25T06:21:29.633Z,13.03
2018-04-25T06:23:56.672Z,11.53
2018-04-25T06:26:24.252Z,12.50
2018-04-25T06:28:51.333Z,13.70
2018-04-25T06:31:18.334Z,12.57
2018-04-25T06:33:45.832Z,17.87
2018-04-25T06:36:13.631Z,16.63
2018-04-25T06:38:40.613Z,13.67
2018-04-25T06:41:07.594Z,19.60
2018-04-25T06:43:34.635Z,14.50
2018-04-25T06:46:01.652Z,19.03
2018-04-25T06:48:28.692Z,15.27
2018-04-25T06:50:55.691Z,14.73
2018-04-25T06:53:23.093Z,16.33
2018-04-25T06:55:50.153Z,18.17
2018-04-25T06:58:17.062Z,19.20
2018-04-25T07:00:44.112Z,24.13
2018-04-25T07:03:11.911Z,25.13
2018-04-25T07:05:39.415Z,26.33
2018-04-25T07:08:06.511Z,23.20
2018-04-25T07:10:33.951Z,19.77
2018-04-25T07:13:00.970Z,18.77
2018-04-25T07:15:28.770Z,17.67
2018-04-25T07:17:56.211Z,16.80
2018-04-25T07:20:23.230Z,22.57
2018-04-25T07:22:50.271Z,18.00
2018-04-25T07:25:17.200Z,19.27
2018-04-25T07:27:44.291Z,18.17
2018-04-25T07:30:12.378Z,19.90
2018-04-25T07:32:39.412Z,16.70
2018-04-25T07:35:06.452Z,17.60
2018-04-25T07:37:33.512Z,18.93
2018-04-25T07:40:00.575Z,16.03
2018-04-25T07:42:27.993Z,15.47
2018-04-25T07:44:55.731Z,17.83
2018-04-25T07:47:22.751Z,14.53
2018-04-25T07:49:49.753Z,13.20
2018-04-25T07:52:17.495Z,10.97
2018-04-25T07:54:44.635Z,12.20
2018-04-25T07:57:11.631Z,14.10
2018-04-25T07:59:38.672Z,14.07
2018-04-25T08:02:06.211Z,11.87
2018-04-25T08:04:34.031Z,13.80
2018-04-25T08:07:01.033Z,13.17
2018-04-25T08:09:28.851Z,14.50
2018-04-25T08:11:56.371Z,16.57
2018-04-25T08:14:41.578Z,13.57
2018-04-25T08:17:27.011Z,13.27
2018-04-25T08:20:12.231Z,14.77
2018-04-25T08:22:40.051Z,12.43
2018-04-25T08:25:07.071Z,14.37
2018-04-25T08:27:34.591Z,16.50
2018-04-25T08:30:01.631Z,14.67
2018-04-25T08:32:28.631Z,13.07
2018-04-25T08:34:55.564Z,11.67
2018-04-25T08:37:23.451Z,13.87
2018-04-25T08:39:50.514Z,14.13
2018-04-25T08:42:17.571Z,12.53
2018-04-25T08:44:44.686Z,14.07
2018-04-25T08:47:11.719Z,16.90
2018-04-25T08:49:38.653Z,10.10
2018-04-25T08:52:09.531Z,11.30
2018-04-25T08:54:36.552Z,11.37
2018-04-25T08:57:04.660Z,11.70
2018-04-25T08:59:31.679Z,13.43
2018-04-25T09:01:58.753Z,11.33
2018-04-25T09:04:25.731Z,9.53
2018-04-25T09:06:52.751Z,11.93
2018-04-25T09:09:39.551Z,7.93
2018-04-25T09:12:07.230Z,10.83
2018-04-25T09:14:34.316Z,15.13
2018-04-25T09:17:01.455Z,8.60
2018-04-25T09:19:29.339Z,10.63
2018-04-25T09:21:56.552Z,15.00
2018-04-25T09:24:23.632Z,11.50
2018-04-25T09:26:51.793Z,11.70
2018-04-25T09:29:18.850Z,12.10
2018-04-25T09:31:45.971Z,13.63
2018-04-25T09:34:13.090Z,10.87
2018-04-25T09:36:40.072Z,13.10
2018-04-25T09:39:08.093Z,10.17
2018-04-25T09:41:35.172Z,9.60
2018-04-25T09:44:02.110Z,10.77
2018-04-25T09:46:29.251Z,11.10
2018-04-25T09:48:56.251Z,8.93
2018-04-25T09:51:23.351Z,11.37
2018-04-25T09:53:50.512Z,14.80
2018-04-25T09:56:17.513Z,9.73
2018-04-25T09:58:44.619Z,8.13
2018-04-25T10:01:11.633Z,11.30
2018-04-25T10:03:43.533Z,8.90
2018-04-25T10:06:10.491Z,12.00
2018-04-25T10:08:37.592Z,10.07
2018-04-25T10:11:04.513Z,9.13
2018-04-25T10:13:31.573Z,9.23
2018-04-25T10:15:58.783Z,8.23
2018-04-25T10:18:26.625Z,7.10
2018-04-25T10:20:53.880Z,10.83
2018-04-25T10:23:21.720Z,8.87
2018-04-25T10:25:48.920Z,7.93
2018-04-25T10:28:16.000Z,8.93
2018-04-25T10:30:43.003Z,6.37
2018-04-25T10:33:10.021Z,12.97
2018-04-25T10:35:37.081Z,6.83
2018-04-25T10:38:04.101Z,7.60
2018-04-25T10:40:31.214Z,7.43
2018-04-25T10:42:58.260Z,11.30
2018-04-25T10:45:25.260Z,9.93
2018-04-25T10:47:52.360Z,8.43
2018-04-25T10:50:19.420Z,8.20
2018-04-25T10:52:46.465Z,7.70
2018-04-25T10:55:13.483Z,14.77
2018-04-25T10:57:40.500Z,10.10
2018-04-25T11:00:07.581Z,7.30
2018-04-25T11:02:34.756Z,13.77
2018-04-25T11:05:02.560Z,8.23
2018-04-25T11:07:29.748Z,8.27
2018-04-25T11:09:56.781Z,8.87
2018-04-25T11:12:23.721Z,10.60
2018-04-25T11:14:51.540Z,9.90
2018-04-25T11:17:18.544Z,6.67
2018-04-25T11:19:45.819Z,5.90
2018-04-25T11:22:12.738Z,9.90
2018-04-25T11:24:39.739Z,11.47
2018-04-25T11:27:06.781Z,6.93
2018-04-25T11:29:33.862Z,8.00
2018-04-25T11:32:00.996Z,11.23
2018-04-25T11:34:28.159Z,8.27
2018-04-25T11:36:56.039Z,12.03
2018-04-25T11:39:24.241Z,10.50
2018-04-25T11:41:51.280Z,8.50
2018-04-25T11:44:18.343Z,8.47
2018-04-25T11:46:45.499Z,7.17
2018-04-25T11:49:12.558Z,9.77
2018-04-25T11:51:39.677Z,10.47
2018-04-25T11:54:06.800Z,10.00
2018-04-25T11:56:34.518Z,8.60
2018-04-25T11:59:01.538Z,6.53
2018-04-25T12:01:28.618Z,7.40
2018-04-25T12:03:55.599Z,6.53
2018-04-25T12:06:23.399Z,8.57
2018-04-25T12:08:50.498Z,7.17
2018-04-25T12:11:17.597Z,8.60
2018-04-25T12:13:44.806Z,7.53
2018-04-25T12:16:12.699Z,8.87
2018-04-25T12:18:39.757Z,8.27
2018-04-25T12:21:06.878Z,8.83
2018-04-25T12:23:33.919Z,10.43
2018-04-25T12:26:01.000Z,9.40
2018-04-25T12:28:28.018Z,13.03
2018-04-25T12:30:55.019Z,12.53
2018-04-25T12:33:22.046Z,9.57
2018-04-25T12:35:49.909Z,7.97
2018-04-25T12:38:16.959Z,9.60
2018-04-25T12:40:44.717Z,8.07
2018-04-25T12:43:11.737Z,6.30
2018-04-25T12:45:38.798Z,13.37
2018-04-25T12:48:05.938Z,9.87
2018-04-25T12:50:33.659Z,7.90
2018-04-25T12:53:01.923Z,8.37
2018-04-25T12:55:28.999Z,10.77
2018-04-25T12:57:56.062Z,9.37
2018-04-25T13:00:23.425Z,11.60
2018-04-25T13:02:50.524Z,8.30
2018-04-25T13:05:17.574Z,8.90
2018-04-25T13:07:44.690Z,9.63
2018-04-25T13:10:11.811Z,4.83
2018-04-25T13:12:38.991Z,7.87
2018-04-25T13:15:06.098Z,7.20
2018-04-25T13:17:33.131Z,6.87
2018-04-25T13:20:00.392Z,10.87
2018-04-25T13:22:27.451Z,8.30
2018-04-25T13:27:27.870Z,8.13
2018-04-25T13:29:54.954Z,10.73
2018-04-25T13:33:15.291Z,8.77
2018-04-25T13:35:42.251Z,7.13
2018-04-25T13:38:09.211Z,11.80
2018-04-25T13:40:36.287Z,8.43
2018-04-25T13:43:03.246Z,7.97
2018-04-25T13:45:30.307Z,6.40
2018-04-25T13:47:58.084Z,7.97
2018-04-25T13:50:25.892Z,7.33
2018-04-25T13:52:53.040Z,9.00
2018-04-25T13:55:20.136Z,6.73
2018-04-25T13:57:47.892Z,5.93
2018-04-25T14:00:14.752Z,8.43
2018-04-25T14:02:42.593Z,9.07
2018-04-25T14:05:09.573Z,10.40
2018-04-25T14:07:36.592Z,7.30
2018-04-25T14:10:03.691Z,8.90
2018-04-25T14:12:31.209Z,11.93
2018-04-25T14:14:59.053Z,8.33
2018-04-25T14:17:25.972Z,7.13
2018-04-25T14:19:55.172Z,12.27
2018-04-25T14:22:22.980Z,6.17
2018-04-25T14:24:50.141Z,7.33
2018-04-25T14:27:17.315Z,8.63
2018-04-25T14:29:44.401Z,9.05
2018-04-25T14:32:11.422Z,11.53
2018-04-25T14:34:38.698Z,9.50
2018-04-25T14:37:05.702Z,9.57
2018-04-25T14:39:32.747Z,9.67
2018-04-25T14:42:00.727Z,9.23
2018-04-25T14:44:27.710Z,10.33
2018-04-25T14:46:54.713Z,10.43
2018-04-25T14:49:22.119Z,7.87
2018-04-25T14:51:49.119Z,8.60
2018-04-25T14:54:16.498Z,7.83
2018-04-25T14:56:44.374Z,7.30
2018-04-25T14:59:11.675Z,7.90
2018-04-25T15:01:38.944Z,9.47
2018-04-25T15:04:06.330Z,9.00
2018-04-25T15:06:34.150Z,8.93
2018-04-25T15:09:01.188Z,10.30
2018-04-25T15:11:28.364Z,9.33
2018-04-25T15:13:55.378Z,7.53
2018-04-25T15:16:23.139Z,10.93
2018-04-25T15:18:50.918Z,11.10
2018-04-25T15:21:17.865Z,8.83
2018-04-25T15:23:45.327Z,8.90
2018-04-25T15:26:12.458Z,11.33
2018-04-25T15:28:40.280Z,8.87
2018-04-25T15:31:07.338Z,8.33
2018-04-25T15:33:34.405Z,10.10
2018-04-25T15:36:02.065Z,9.53
2018-04-25T15:38:29.038Z,10.47
2018-04-25T15:40:56.077Z,8.43
2018-04-25T15:43:23.179Z,6.50
2018-04-25T15:45:50.999Z,11.20
2018-04-25T15:48:18.220Z,9.70
2018-04-25T15:50:45.219Z,13.10
2018-04-25T15:53:13.260Z,7.13
2018-04-25T15:55:41.000Z,7.80
2018-04-25T15:58:08.000Z,8.90
2018-04-25T16:00:35.250Z,9.63
2018-04-25T16:03:02.305Z,12.40
2018-04-25T16:05:29.365Z,11.33
2018-04-25T16:07:56.293Z,12.07
2018-04-25T16:10:23.346Z,9.83
2018-04-25T16:12:50.346Z,9.07
2018-04-25T16:15:18.166Z,9.87
2018-04-25T16:17:45.106Z,8.60
2018-04-25T16:20:12.365Z,9.13
2018-04-25T16:22:40.146Z,8.33
2018-04-25T16:25:07.206Z,15.07
2018-04-25T16:27:34.266Z,9.73
2018-04-25T16:30:01.556Z,6.43
2018-04-25T16:32:28.643Z,13.33
2018-04-25T16:34:55.755Z,9.37
2018-04-25T16:37:22.782Z,8.93
2018-04-25T16:39:49.816Z,11.50
2018-04-25T16:42:16.856Z,10.63
2018-04-25T16:44:44.780Z,11.90
2018-04-25T16:47:11.934Z,11.43
2018-04-25T16:49:39.055Z,9.17
2018-04-25T16:52:06.155Z,7.87
2018-04-25T16:54:33.315Z,13.50
2018-04-25T16:57:00.376Z,13.10
2018-04-25T16:59:27.514Z,13.80
2018-04-25T17:01:54.541Z,18.47
2018-04-25T17:04:21.813Z,15.37
2018-04-25T17:06:48.875Z,11.50
2018-04-25T17:09:15.934Z,12.97
2018-04-25T17:11:43.238Z,13.63
2018-04-25T17:14:10.335Z,10.70
2018-04-25T17:16:37.454Z,13.40
2018-04-25T17:19:05.425Z,11.47
2018-04-25T17:21:32.674Z,13.47
2018-04-25T17:24:00.694Z,15.50
2018-04-25T17:26:27.754Z,10.60
2018-04-25T17:28:55.674Z,10.33
2018-04-25T17:31:22.715Z,7.90
2018-04-25T17:33:49.937Z,9.63
2018-04-25T17:36:17.057Z,11.93
2018-04-25T17:38:44.213Z,11.17
2018-04-25T17:41:11.256Z,8.20
2018-04-25T17:43:38.314Z,12.43
2018-04-25T17:46:05.353Z,9.77
2018-04-25T17:48:32.401Z,10.07
2018-04-25T17:50:59.573Z,12.40
2018-04-25T17:53:26.675Z,9.60
2018-04-25T17:55:53.712Z,10.80
2018-04-25T17:58:20.823Z,10.87
2018-04-25T18:00:47.893Z,11.17
2018-04-25T18:03:15.262Z,7.97
2018-04-25T18:05:42.254Z,7.03
2018-04-25T18:08:09.434Z,9.83
2018-04-25T18:10:37.214Z,7.60
2018-04-25T18:13:05.296Z,9.97
2018-04-25T18:15:32.293Z,7.80
2018-04-25T18:17:59.395Z,10.33
2018-04-25T18:20:26.674Z,11.73
2018-04-25T18:22:53.816Z,11.43
2018-04-25T18:25:20.873Z,9.00
2018-04-25T18:27:47.896Z,8.77
2018-04-25T18:30:14.974Z,8.07
2018-04-25T18:32:42.054Z,9.97
2018-04-25T18:35:09.114Z,13.23
2018-04-25T18:37:36.114Z,11.03
2018-04-25T18:40:03.200Z,11.13
2018-04-25T18:42:30.274Z,8.83
2018-04-25T18:44:57.414Z,8.90
2018-04-25T18:47:24.454Z,10.67
2018-04-25T18:49:51.635Z,10.77
2018-04-25T18:52:18.655Z,13.47
2018-04-25T18:54:45.737Z,11.13
2018-04-25T18:57:12.874Z,10.13
2018-04-25T18:59:39.975Z,8.77
2018-04-25T19:02:06.955Z,8.13
2018-04-25T19:04:34.015Z,8.63
2018-04-25T19:07:01.075Z,9.33
2018-04-25T19:09:28.275Z,9.87
2018-04-25T19:11:55.355Z,13.67
2018-04-25T19:14:22.394Z,7.80
2018-04-25T19:16:49.434Z,9.93
2018-04-25T19:19:16.553Z,13.10
2018-04-25T19:21:43.634Z,9.43
2018-04-25T19:24:10.773Z,9.00
2018-04-25T19:26:38.584Z,9.27
2018-04-25T19:29:05.656Z,7.20
2018-04-25T19:31:32.733Z,9.40
2018-04-25T19:33:59.833Z,9.33
2018-04-25T19:36:26.952Z,12.20
2018-04-25T19:38:54.113Z,10.37
2018-04-25T19:41:21.533Z,10.30
2018-04-25T19:43:48.434Z,7.57
2018-04-25T19:46:16.352Z,10.03
2018-04-25T19:48:43.432Z,9.90
2018-04-25T19:51:10.452Z,7.47
2018-04-25T19:53:37.976Z,6.60
2018-04-25T19:56:05.103Z,10.00
2018-04-25T19:58:32.116Z,10.80
2018-04-25T20:00:59.573Z,7.57
2018-04-25T20:03:26.673Z,7.03
2018-04-25T20:05:53.733Z,14.93
2018-04-25T20:08:21.023Z,8.97
2018-04-25T20:10:48.093Z,10.50
2018-04-25T20:13:15.433Z,6.73
2018-04-25T20:15:43.294Z,8.07
2018-04-25T20:18:10.599Z,9.03
2018-04-25T20:20:38.393Z,9.43
2018-04-25T20:23:05.453Z,6.00
2018-04-25T20:25:32.534Z,9.23
2018-04-25T20:27:59.593Z,11.53
2018-04-25T20:30:26.713Z,10.97
2018-04-25T20:32:53.793Z,9.43
2018-04-25T20:35:20.962Z,7.63
2018-04-25T20:37:48.178Z,5.90
2018-04-25T20:40:15.213Z,9.73
2018-04-25T20:42:42.254Z,8.03
2018-04-25T20:45:09.455Z,8.17
2018-04-25T20:47:37.195Z,8.73
2018-04-25T20:50:04.274Z,14.23
2018-04-25T20:52:31.338Z,11.73
2018-04-25T20:54:58.341Z,12.37
2018-04-25T20:57:25.995Z,9.63
2018-04-25T20:59:53.055Z,7.77
2018-04-25T21:02:20.102Z,9.83
2018-04-25T21:04:47.754Z,11.03
2018-04-25T21:07:14.754Z,8.63
2018-04-25T21:09:41.813Z,10.67
2018-04-25T21:12:08.917Z,10.47
2018-04-25T21:14:35.953Z,10.23
2018-04-25T21:17:03.015Z,8.67
2018-04-25T21:19:30.793Z,12.03
2018-04-25T21:21:57.936Z,8.50
2018-04-25T21:24:25.733Z,9.37
2018-04-25T21:26:52.833Z,8.87
2018-04-25T21:29:20.593Z,8.00
2018-04-25T21:31:47.553Z,10.43
2018-04-25T21:34:15.773Z,12.37
2018-04-25T21:36:42.931Z,11.20
2018-04-25T21:39:09.933Z,8.73
2018-04-25T21:41:36.953Z,14.00
2018-04-25T21:44:03.973Z,10.57
2018-04-25T21:46:30.992Z,8.83
2018-04-25T21:48:57.993Z,11.23
2018-04-25T21:51:25.032Z,9.33
2018-04-25T21:53:52.092Z,9.93
2018-04-25T21:56:19.132Z,9.33
2018-04-25T21:58:46.152Z,12.70
2018-04-25T22:01:13.157Z,17.17
2018-04-25T22:03:40.233Z,20.00
2018-04-25T22:06:07.221Z,16.43
2018-04-25T22:08:34.253Z,13.00
2018-04-25T22:11:01.293Z,14.20
2018-04-25T22:13:28.393Z,12.43
2018-04-25T22:15:56.032Z,8.20
2018-04-25T22:18:23.074Z,8.80
2018-04-25T22:20:50.073Z,7.97
2018-04-25T22:23:17.113Z,10.70
2018-04-25T22:25:44.176Z,18.20
2018-04-25T22:28:11.572Z,11.43
2018-04-25T22:30:38.552Z,11.03
2018-04-25T22:33:05.593Z,12.47
2018-04-25T22:35:32.593Z,13.47
2018-04-25T22:37:59.673Z,9.93
2018-04-25T22:40:26.792Z,10.33
2018-04-25T22:42:53.793Z,11.00
2018-04-25T22:45:20.792Z,8.20
2018-04-25T22:47:47.892Z,9.47
2018-04-25T22:50:14.986Z,11.70
2018-04-25T22:55:41.144Z,10.73
2018-04-25T22:58:08.386Z,10.50
2018-04-25T23:00:36.717Z,8.60
2018-04-25T23:03:04.587Z,10.30
2018-04-25T23:05:32.788Z,10.20
2018-04-25T23:08:00.182Z,11.80
2018-04-25T23:10:30.867Z,12.63
2018-04-25T23:12:58.138Z,15.20
2018-04-25T23:15:25.467Z,17.20
2018-04-25T23:17:52.858Z,13.23
2018-04-25T23:20:22.637Z,12.53
2018-04-25T23:22:50.040Z,13.00
2018-04-25T23:25:19.798Z,16.17
2018-04-25T23:27:48.180Z,10.10
2018-04-25T23:30:15.391Z,12.20
2018-04-25T23:32:43.777Z,8.97
2018-04-25T23:35:12.927Z,10.47
2018-04-25T23:37:42.478Z,12.53
2018-04-25T23:40:12.817Z,16.00
2018-04-25T23:42:40.090Z,12.87
2018-04-25T23:45:07.568Z,12.67
2018-04-25T23:47:34.807Z,10.17
2018-04-25T23:50:02.318Z,10.50
2018-04-25T23:52:29.572Z,11.50
2018-04-25T23:54:57.358Z,11.07
2018-04-25T23:57:24.697Z,13.63
2018-04-25T23:59:51.856Z,12.13
